CheckWX is a tool to help pilots better visualize weather data.  It is not intended as a substitute for an official pre-flight weather briefing.

14:09:00 UTC

KLAF TAF
Purdue University Airport
Lafayette, Indiana, USA
KLAF 271733Z 2718/2818 13009KT P6SM VCTS SCT035CB BKN100 FM272000 17009KT P6SM VCSH SCT026 BKN090 FM280600 VRB04KT P6SM BKN050 FM281300 17006KT P6SM BKN030 FM281500 19007KT 6SM -SHRA OVC025

May-27@
18:00 UTC

May-27 @ 18:00 UTC

May-27@
20:00 UTC

May-27 @ 20:00 UTC

TAF KLAF 271733Z 2718/2818 13009KT P6SM VCTS SCT035CB BKN100

Expired

Wind
  • 130° at 9 KTS
Conditions
Area Thunderstorm
Cloud Levels
  • Scattered at 3,500' AGL
  • Broken at 10,000' AGL

May-27@
20:00 UTC

May-27 @ 20:00 UTC

May-28@
06:00 UTC

May-28 @ 06:00 UTC

FM272000 17009KT P6SM VCSH SCT026 BKN090

Expired

Wind
  • 170° at 9 KTS
Conditions
Area Showers
Cloud Levels
  • Scattered at 2,600' AGL
  • Broken at 9,000' AGL

May-28@
06:00 UTC

May-28 @ 06:00 UTC

May-28@
13:00 UTC

May-28 @ 13:00 UTC

FM280600 VRB04KT P6SM BKN050

Expired

Wind
  • Variable at 4 KTS
Cloud Levels
  • Broken at 5,000' AGL

May-28@
13:00 UTC

May-28 @ 13:00 UTC

May-28@
15:00 UTC

May-28 @ 15:00 UTC

FM281300 17006KT P6SM BKN030

From

From Standard forecast or significant change

Wind
  • 170° at 6 KTS
Cloud Levels
  • Broken at 3,000' AGL

May-28@
15:00 UTC

May-28 @ 15:00 UTC

May-28@
18:00 UTC

May-28 @ 18:00 UTC

FM281500 19007KT 6SM -SHRA OVC025

From

From Standard forecast or significant change

Wind
  • 190° at 7 KTS
Conditions
Light Showers, Rain
Cloud Levels
  • Overcast at 2,500' AGL